AFL1256 UUEE-URKK
Flight info
| Callsign | AFL1256 |
|---|---|
| Flight time | N/A |
| Altitude | 35000 |
| Route | EMGAS T828 EKTUT N72 UMSIS N166 RUNUD T748 KANON L91 KL A100 AMEPU W70 BALEG |
| Aircraft | B738/M-SDE2E3FGHIRWXY/LB1 |
Departure
| Time | 2026-05-04 17:59 |
|---|---|
| Airport | Sheremetyevo International Airport (UUEE) |
Arrival
| Time | N/A |
|---|---|
| Airport | Krasnodar Pashkovsky International Airport (URKK) |
| Time | Latitude | Longitude | Altitude | Speed | Heading |
|---|---|---|---|---|---|
| 2026-05-04 17:39 | 55.97865 | 37.42162 | 638 ft | 0 kts | 255° |
| 2026-05-04 17:54 | 55.97865 | 37.42158 | 638 ft | 1 kts | 255° |
| 2026-05-04 17:55 | 55.97857 | 37.42114 | 642 ft | 6 kts | 249° |
| 2026-05-04 17:55 | 55.97812 | 37.42084 | 641 ft | 10 kts | 167° |
| 2026-05-04 17:55 | 55.97732 | 37.42117 | 638 ft | 14 kts | 165° |
| 2026-05-04 17:55 | 55.97696 | 37.42268 | 640 ft | 17 kts | 74° |
| 2026-05-04 17:56 | 55.97730 | 37.42490 | 641 ft | 20 kts | 75° |
| 2026-05-04 17:56 | 55.97769 | 37.42750 | 641 ft | 22 kts | 75° |
| 2026-05-04 17:56 | 55.97808 | 37.43011 | 641 ft | 21 kts | 75° |
| 2026-05-04 17:56 | 55.97846 | 37.43264 | 639 ft | 21 kts | 75° |
| 2026-05-04 17:57 | 55.97883 | 37.43509 | 640 ft | 20 kts | 75° |
| 2026-05-04 17:57 | 55.97918 | 37.43747 | 639 ft | 20 kts | 75° |
| 2026-05-04 17:57 | 55.97951 | 37.43962 | 645 ft | 15 kts | 75° |
| 2026-05-04 17:57 | 55.97951 | 37.44004 | 638 ft | 2 kts | 117° |
| 2026-05-04 17:58 | 55.97925 | 37.44033 | 638 ft | 8 kts | 161° |
| 2026-05-04 17:58 | 55.97849 | 37.44069 | 639 ft | 14 kts | 166° |
| 2026-05-04 17:58 | 55.97776 | 37.43981 | 639 ft | 14 kts | 253° |
| 2026-05-04 17:58 | 55.97744 | 37.43773 | 641 ft | 35 kts | 255° |
| 2026-05-04 17:59 | 55.97672 | 37.43300 | 639 ft | 83 kts | 255° |
| 2026-05-04 17:59 | 55.97466 | 37.41920 | 640 ft | 145 kts | 255° |
| 2026-05-04 17:59 | 55.96740 | 37.37303 | 2039 ft | 163 kts | 252° |
| 2026-05-04 18:00 | 55.96538 | 37.35998 | 2606 ft | 162 kts | 252° |
| 2026-05-04 18:00 | 55.96233 | 37.34040 | 3338 ft | 165 kts | 253° |
| 2026-05-04 18:00 | 55.95923 | 37.32052 | 4005 ft | 171 kts | 254° |
| 2026-05-04 18:00 | 55.95576 | 37.29837 | 4275 ft | 199 kts | 254° |
| 2026-05-04 18:01 | 55.95181 | 37.27311 | 4475 ft | 223 kts | 254° |
| 2026-05-04 18:01 | 55.94744 | 37.24521 | 4733 ft | 248 kts | 255° |
| 2026-05-04 18:01 | 55.94272 | 37.21510 | 5425 ft | 255 kts | 255° |
| 2026-05-04 18:02 | 55.93308 | 37.15378 | 7099 ft | 258 kts | 255° |
| 2026-05-04 18:02 | 55.92817 | 37.12269 | 7892 ft | 262 kts | 255° |
| 2026-05-04 18:02 | 55.92319 | 37.09127 | 8696 ft | 264 kts | 255° |
| 2026-05-04 18:02 | 55.91820 | 37.05961 | 9482 ft | 268 kts | 257° |
| 2026-05-04 18:03 | 55.91729 | 37.02670 | 9877 ft | 268 kts | 281° |
| 2026-05-04 18:03 | 55.92428 | 36.99581 | 9978 ft | 273 kts | 302° |
| 2026-05-04 18:03 | 55.93747 | 36.97126 | 10005 ft | 277 kts | 320° |
| 2026-05-04 18:03 | 55.95337 | 36.95141 | 9999 ft | 279 kts | 322° |
| 2026-05-04 18:04 | 55.96952 | 36.93200 | 10003 ft | 281 kts | 325° |
| 2026-05-04 18:04 | 55.98771 | 36.91997 | 9995 ft | 288 kts | 349° |
| 2026-05-04 18:04 | 56.02680 | 36.93905 | 10731 ft | 307 kts | 30° |
| 2026-05-04 18:05 | 56.04429 | 36.95990 | 11564 ft | 306 kts | 31° |
| 2026-05-04 18:05 | 56.06197 | 36.98121 | 12327 ft | 308 kts | 31° |
| 2026-05-04 18:05 | 56.07994 | 37.00257 | 13038 ft | 312 kts | 30° |
| 2026-05-04 18:05 | 56.09813 | 37.02399 | 13735 ft | 316 kts | 30° |
| 2026-05-04 18:06 | 56.12497 | 37.08581 | 13990 ft | 335 kts | 73° |
| 2026-05-04 18:06 | 56.13084 | 37.12731 | 14306 ft | 349 kts | 76° |
| 2026-05-04 18:06 | 56.13653 | 37.16990 | 14799 ft | 353 kts | 75° |
| 2026-05-04 18:07 | 56.14242 | 37.21284 | 14833 ft | 355 kts | 75° |
| 2026-05-04 18:07 | 56.14807 | 37.25590 | 14846 ft | 355 kts | 81° |
| 2026-05-04 18:07 | 56.14706 | 37.29978 | 14858 ft | 354 kts | 105° |
| 2026-05-04 18:07 | 56.13692 | 37.33978 | 14884 ft | 355 kts | 128° |
| 2026-05-04 18:08 | 56.11950 | 37.37110 | 15356 ft | 356 kts | 149° |
| 2026-05-04 18:08 | 56.09795 | 37.39206 | 16139 ft | 351 kts | 157° |
| 2026-05-04 18:08 | 56.07573 | 37.41037 | 16850 ft | 353 kts | 159° |
| 2026-05-04 18:08 | 56.05319 | 37.42841 | 17463 ft | 357 kts | 159° |
| 2026-05-04 18:09 | 56.00756 | 37.46584 | 18631 ft | 365 kts | 158° |
| 2026-05-04 18:09 | 55.96172 | 37.50638 | 19722 ft | 374 kts | 147° |
| 2026-05-04 18:10 | 55.94346 | 37.53971 | 19834 ft | 378 kts | 123° |
| 2026-05-04 18:10 | 55.93318 | 37.58313 | 20000 ft | 387 kts | 103° |
| 2026-05-04 18:10 | 55.92815 | 37.63046 | 20541 ft | 389 kts | 101° |
| 2026-05-04 18:10 | 55.92346 | 37.67735 | 21139 ft | 390 kts | 101° |
| 2026-05-04 18:11 | 55.91840 | 37.72496 | 21685 ft | 393 kts | 103° |
| 2026-05-04 18:11 | 55.90906 | 37.77076 | 22143 ft | 394 kts | 120° |
| 2026-05-04 18:11 | 55.89543 | 37.81319 | 22695 ft | 396 kts | 122° |
| 2026-05-04 18:11 | 55.88143 | 37.85570 | 23199 ft | 399 kts | 122° |
| 2026-05-04 18:12 | 55.86757 | 37.89885 | 23631 ft | 403 kts | 121° |
| 2026-05-04 18:12 | 55.85383 | 37.94246 | 24070 ft | 405 kts | 121° |
| 2026-05-04 18:12 | 55.83799 | 37.98361 | 24482 ft | 403 kts | 137° |
| 2026-05-04 18:12 | 55.81557 | 38.01268 | 24899 ft | 398 kts | 158° |
| 2026-05-04 18:13 | 55.78935 | 38.02688 | 25330 ft | 392 kts | 176° |
| 2026-05-04 18:13 | 55.76266 | 38.02603 | 25709 ft | 388 kts | 194° |
| 2026-05-04 18:13 | 55.71501 | 37.98486 | 26434 ft | 384 kts | 225° |
| 2026-05-04 18:14 | 55.69608 | 37.95144 | 26839 ft | 385 kts | 227° |
| 2026-05-04 18:14 | 55.67730 | 37.91712 | 27209 ft | 388 kts | 227° |
| 2026-05-04 18:14 | 55.65828 | 37.88290 | 27575 ft | 391 kts | 226° |
| 2026-05-04 18:15 | 55.61282 | 37.82692 | 27867 ft | 410 kts | 211° |
| 2026-05-04 18:15 | 55.56192 | 37.77655 | 28008 ft | 428 kts | 212° |
| 2026-05-04 18:16 | 55.50920 | 37.72360 | 28135 ft | 444 kts | 206° |
| 2026-05-04 18:16 | 55.47978 | 37.70849 | 28346 ft | 451 kts | 190° |
| 2026-05-04 18:16 | 55.44861 | 37.70142 | 28738 ft | 451 kts | 189° |